CSN6365 ZBAD-ZYTL
Flight info
| Callsign | CSN6365 |
|---|---|
| Flight time | 0h 47m |
| Altitude | 20700 |
| Route | MUGLO W34 ANRAT W575 INTIV |
| Aircraft | A20N/M-SDE2E3FGHIRWXY/LB1 |
Departure
| Time | 2026-05-06 11:41 |
|---|---|
| Airport | Beijing Daxing International Airport (ZBAD) |
Arrival
| Time | 2026-05-06 12:28 |
|---|---|
| Airport | Dalian Zhoushuizi International Airport (ZYTL) |
| Time | Latitude | Longitude | Altitude | Speed | Heading |
|---|---|---|---|---|---|
| 2026-05-06 11:26 | 39.51334 | 116.41750 | 111 ft | 0 kts | 260° |
| 2026-05-06 11:33 | 39.51337 | 116.41770 | 109 ft | 2 kts | 261° |
| 2026-05-06 11:33 | 39.51339 | 116.41792 | 108 ft | 2 kts | 262° |
| 2026-05-06 11:33 | 39.51342 | 116.41813 | 108 ft | 2 kts | 263° |
| 2026-05-06 11:33 | 39.51343 | 116.41827 | 109 ft | 2 kts | 266° |
| 2026-05-06 11:34 | 39.51342 | 116.41856 | 108 ft | 2 kts | 286° |
| 2026-05-06 11:34 | 39.51336 | 116.41867 | 107 ft | 2 kts | 339° |
| 2026-05-06 11:34 | 39.51331 | 116.41869 | 110 ft | 0 kts | 353° |
| 2026-05-06 11:36 | 39.51341 | 116.41868 | 108 ft | 4 kts | 354° |
| 2026-05-06 11:36 | 39.51383 | 116.41900 | 111 ft | 10 kts | 62° |
| 2026-05-06 11:36 | 39.51397 | 116.42007 | 110 ft | 14 kts | 83° |
| 2026-05-06 11:36 | 39.51411 | 116.42156 | 110 ft | 19 kts | 83° |
| 2026-05-06 11:37 | 39.51428 | 116.42340 | 111 ft | 22 kts | 83° |
| 2026-05-06 11:37 | 39.51449 | 116.42557 | 111 ft | 26 kts | 82° |
| 2026-05-06 11:37 | 39.51472 | 116.42800 | 110 ft | 28 kts | 83° |
| 2026-05-06 11:37 | 39.51494 | 116.43032 | 109 ft | 11 kts | 83° |
| 2026-05-06 11:38 | 39.51514 | 116.43101 | 109 ft | 6 kts | 37° |
| 2026-05-06 11:38 | 39.51546 | 116.43114 | 108 ft | 0 kts | 13° |
| 2026-05-06 11:38 | 39.51554 | 116.43116 | 108 ft | 3 kts | 13° |
| 2026-05-06 11:39 | 39.51580 | 116.43124 | 107 ft | 5 kts | 13° |
| 2026-05-06 11:39 | 39.51623 | 116.43138 | 106 ft | 7 kts | 14° |
| 2026-05-06 11:39 | 39.51669 | 116.43156 | 104 ft | 2 kts | 36° |
| 2026-05-06 11:39 | 39.51668 | 116.43162 | 106 ft | 1 kts | 98° |
| 2026-05-06 11:40 | 39.51656 | 116.43224 | 107 ft | 15 kts | 106° |
| 2026-05-06 11:40 | 39.51587 | 116.43567 | 108 ft | 72 kts | 103° |
| 2026-05-06 11:40 | 39.51423 | 116.44488 | 105 ft | 136 kts | 102° |
| 2026-05-06 11:40 | 39.51181 | 116.45875 | 320 ft | 162 kts | 102° |
| 2026-05-06 11:41 | 39.50974 | 116.47271 | 1044 ft | 153 kts | 100° |
| 2026-05-06 11:41 | 39.50832 | 116.48605 | 1805 ft | 146 kts | 97° |
| 2026-05-06 11:41 | 39.50697 | 116.49990 | 2443 ft | 164 kts | 98° |
| 2026-05-06 11:41 | 39.50466 | 116.51526 | 3047 ft | 185 kts | 105° |
| 2026-05-06 11:42 | 39.49936 | 116.53174 | 3474 ft | 212 kts | 114° |
| 2026-05-06 11:42 | 39.49367 | 116.55037 | 3786 ft | 241 kts | 104° |
| 2026-05-06 11:42 | 39.48979 | 116.57284 | 4195 ft | 267 kts | 99° |
| 2026-05-06 11:42 | 39.48606 | 116.59699 | 4730 ft | 279 kts | 99° |
| 2026-05-06 11:43 | 39.48203 | 116.62175 | 4930 ft | 281 kts | 99° |
| 2026-05-06 11:43 | 39.47814 | 116.64655 | 4957 ft | 282 kts | 98° |
| 2026-05-06 11:43 | 39.47449 | 116.67158 | 4954 ft | 283 kts | 98° |
| 2026-05-06 11:44 | 39.46720 | 116.72152 | 4957 ft | 282 kts | 98° |
| 2026-05-06 11:44 | 39.46333 | 116.74658 | 4953 ft | 282 kts | 102° |
| 2026-05-06 11:44 | 39.45528 | 116.76940 | 5109 ft | 289 kts | 127° |
| 2026-05-06 11:44 | 39.43952 | 116.78571 | 5820 ft | 295 kts | 153° |
| 2026-05-06 11:45 | 39.42055 | 116.79654 | 6705 ft | 301 kts | 159° |
| 2026-05-06 11:45 | 39.40091 | 116.80638 | 7612 ft | 305 kts | 160° |
| 2026-05-06 11:45 | 39.38091 | 116.81627 | 8620 ft | 308 kts | 160° |
| 2026-05-06 11:45 | 39.36081 | 116.82629 | 9608 ft | 312 kts | 160° |
| 2026-05-06 11:46 | 39.34037 | 116.83654 | 10423 ft | 320 kts | 161° |
| 2026-05-06 11:46 | 39.31891 | 116.84730 | 10827 ft | 342 kts | 161° |
| 2026-05-06 11:46 | 39.29607 | 116.85877 | 11217 ft | 363 kts | 162° |
| 2026-05-06 11:46 | 39.27202 | 116.87090 | 11869 ft | 374 kts | 162° |
| 2026-05-06 11:47 | 39.24761 | 116.88324 | 12750 ft | 378 kts | 163° |
| 2026-05-06 11:47 | 39.22339 | 116.89550 | 13677 ft | 379 kts | 164° |
| 2026-05-06 11:47 | 39.19868 | 116.90799 | 14493 ft | 381 kts | 165° |
| 2026-05-06 11:47 | 39.17405 | 116.92135 | 15293 ft | 387 kts | 159° |
| 2026-05-06 11:48 | 39.15152 | 116.94128 | 16068 ft | 402 kts | 142° |
| 2026-05-06 11:48 | 39.13424 | 116.97031 | 16830 ft | 417 kts | 122° |
| 2026-05-06 11:48 | 39.12502 | 117.00625 | 17574 ft | 430 kts | 102° |
| 2026-05-06 11:48 | 39.12207 | 117.04478 | 18280 ft | 436 kts | 96° |
| 2026-05-06 11:49 | 39.12045 | 117.08409 | 18870 ft | 441 kts | 96° |
| 2026-05-06 11:49 | 39.11886 | 117.12376 | 19425 ft | 446 kts | 96° |
| 2026-05-06 11:49 | 39.11711 | 117.16388 | 19973 ft | 451 kts | 96° |
| 2026-05-06 11:49 | 39.11521 | 117.20440 | 20428 ft | 455 kts | 96° |
| 2026-05-06 11:50 | 39.11324 | 117.24473 | 20596 ft | 463 kts | 96° |
| 2026-05-06 11:50 | 39.11109 | 117.28685 | 20616 ft | 478 kts | 96° |
| 2026-05-06 11:50 | 39.10886 | 117.32993 | 20612 ft | 483 kts | 96° |
| 2026-05-06 11:50 | 39.10662 | 117.37316 | 20614 ft | 484 kts | 96° |
| 2026-05-06 11:51 | 39.10435 | 117.41640 | 20615 ft | 484 kts | 96° |
| 2026-05-06 11:51 | 39.10206 | 117.45968 | 20613 ft | 484 kts | 96° |
| 2026-05-06 11:51 | 39.09974 | 117.50302 | 20603 ft | 484 kts | 96° |
| 2026-05-06 11:51 | 39.09741 | 117.54622 | 20611 ft | 484 kts | 97° |
| 2026-05-06 11:52 | 39.09507 | 117.58936 | 20611 ft | 484 kts | 97° |
| 2026-05-06 11:52 | 39.09274 | 117.63203 | 20608 ft | 484 kts | 97° |
| 2026-05-06 11:52 | 39.09036 | 117.67526 | 20600 ft | 484 kts | 97° |
| 2026-05-06 11:52 | 39.08796 | 117.71845 | 20604 ft | 484 kts | 97° |
| 2026-05-06 11:53 | 39.08558 | 117.76165 | 20603 ft | 484 kts | 97° |
| 2026-05-06 11:53 | 39.08321 | 117.80482 | 20598 ft | 484 kts | 97° |
| 2026-05-06 11:53 | 39.08081 | 117.84806 | 20601 ft | 484 kts | 97° |
| 2026-05-06 11:53 | 39.07839 | 117.89139 | 20604 ft | 484 kts | 97° |
| 2026-05-06 11:54 | 39.07597 | 117.93454 | 20593 ft | 483 kts | 97° |
| 2026-05-06 11:54 | 39.07356 | 117.97721 | 20596 ft | 483 kts | 97° |
| 2026-05-06 11:54 | 39.07097 | 118.02047 | 20600 ft | 483 kts | 98° |
| 2026-05-06 11:54 | 39.06657 | 118.06322 | 20601 ft | 481 kts | 102° |
| 2026-05-06 11:55 | 39.06061 | 118.10560 | 20600 ft | 480 kts | 104° |
| 2026-05-06 11:55 | 39.05385 | 118.14761 | 20607 ft | 480 kts | 105° |
| 2026-05-06 11:55 | 39.04677 | 118.18970 | 20602 ft | 480 kts | 106° |
| 2026-05-06 11:55 | 39.03968 | 118.23164 | 20595 ft | 480 kts | 105° |
| 2026-05-06 11:56 | 39.03268 | 118.27363 | 20604 ft | 480 kts | 105° |
| 2026-05-06 11:56 | 39.02577 | 118.31570 | 20605 ft | 480 kts | 105° |
| 2026-05-06 11:56 | 39.01894 | 118.35780 | 20605 ft | 481 kts | 105° |
| 2026-05-06 11:56 | 39.01224 | 118.39939 | 20603 ft | 481 kts | 105° |
| 2026-05-06 11:57 | 39.00547 | 118.44150 | 20604 ft | 481 kts | 105° |
| 2026-05-06 11:57 | 38.99871 | 118.48357 | 20603 ft | 481 kts | 105° |
| 2026-05-06 11:57 | 38.99191 | 118.52575 | 20601 ft | 481 kts | 105° |
| 2026-05-06 11:57 | 38.98511 | 118.56778 | 20603 ft | 481 kts | 105° |
| 2026-05-06 11:58 | 38.97829 | 118.60985 | 20601 ft | 481 kts | 105° |
| 2026-05-06 11:58 | 38.97144 | 118.65192 | 20605 ft | 481 kts | 105° |
| 2026-05-06 11:58 | 38.96457 | 118.69399 | 20606 ft | 481 kts | 105° |
| 2026-05-06 11:58 | 38.95768 | 118.73608 | 20606 ft | 481 kts | 105° |
| 2026-05-06 11:59 | 38.95086 | 118.77765 | 20607 ft | 481 kts | 105° |
| 2026-05-06 11:59 | 38.94394 | 118.81974 | 20605 ft | 481 kts | 105° |
| 2026-05-06 11:59 | 38.93700 | 118.86188 | 20605 ft | 481 kts | 105° |
| 2026-05-06 11:59 | 38.93004 | 118.90396 | 20605 ft | 481 kts | 105° |
| 2026-05-06 12:00 | 38.92309 | 118.94595 | 20606 ft | 481 kts | 105° |
| 2026-05-06 12:00 | 38.91611 | 118.98798 | 20599 ft | 481 kts | 105° |
| 2026-05-06 12:00 | 38.90912 | 119.03000 | 20601 ft | 481 kts | 105° |
| 2026-05-06 12:00 | 38.90212 | 119.07201 | 20601 ft | 482 kts | 105° |
| 2026-05-06 12:01 | 38.89507 | 119.11416 | 20600 ft | 482 kts | 105° |
| 2026-05-06 12:01 | 38.88806 | 119.15601 | 20605 ft | 482 kts | 105° |
| 2026-05-06 12:01 | 38.88105 | 119.19776 | 20603 ft | 481 kts | 105° |
| 2026-05-06 12:01 | 38.87558 | 119.23026 | 20600 ft | 481 kts | 105° |
| 2026-05-06 12:02 | 38.86850 | 119.27225 | 20600 ft | 481 kts | 105° |
| 2026-05-06 12:02 | 38.86142 | 119.31414 | 20600 ft | 481 kts | 105° |
| 2026-05-06 12:02 | 38.85432 | 119.35607 | 20597 ft | 481 kts | 105° |
| 2026-05-06 12:02 | 38.84721 | 119.39795 | 20598 ft | 481 kts | 105° |
| 2026-05-06 12:03 | 38.84006 | 119.43996 | 20596 ft | 481 kts | 105° |
| 2026-05-06 12:03 | 38.83291 | 119.48186 | 20595 ft | 480 kts | 105° |
| 2026-05-06 12:03 | 38.82576 | 119.52372 | 20592 ft | 480 kts | 105° |
| 2026-05-06 12:03 | 38.81859 | 119.56556 | 20592 ft | 480 kts | 105° |
| 2026-05-06 12:04 | 38.81144 | 119.60714 | 20590 ft | 479 kts | 105° |
| 2026-05-06 12:04 | 38.80433 | 119.64847 | 20586 ft | 479 kts | 105° |
| 2026-05-06 12:04 | 38.79713 | 119.69020 | 20586 ft | 479 kts | 105° |
| 2026-05-06 12:04 | 38.78993 | 119.73186 | 20585 ft | 479 kts | 105° |
| 2026-05-06 12:05 | 38.78261 | 119.77344 | 20581 ft | 478 kts | 108° |
| 2026-05-06 12:05 | 38.77114 | 119.81303 | 20574 ft | 470 kts | 121° |
| 2026-05-06 12:05 | 38.75297 | 119.84733 | 20573 ft | 460 kts | 136° |
| 2026-05-06 12:05 | 38.73122 | 119.87710 | 20575 ft | 457 kts | 141° |
| 2026-05-06 12:06 | 38.70801 | 119.90476 | 20572 ft | 454 kts | 144° |
| 2026-05-06 12:06 | 38.68407 | 119.93124 | 20566 ft | 453 kts | 145° |
| 2026-05-06 12:06 | 38.66089 | 119.95885 | 20565 ft | 459 kts | 139° |
| 2026-05-06 12:06 | 38.63955 | 119.98894 | 20557 ft | 460 kts | 136° |
| 2026-05-06 12:07 | 38.61872 | 120.02045 | 20556 ft | 462 kts | 134° |
| 2026-05-06 12:07 | 38.59851 | 120.05253 | 20551 ft | 462 kts | 133° |
| 2026-05-06 12:07 | 38.57886 | 120.08451 | 20549 ft | 463 kts | 133° |
| 2026-05-06 12:07 | 38.55905 | 120.11705 | 20547 ft | 464 kts | 133° |
| 2026-05-06 12:08 | 38.54144 | 120.15196 | 20538 ft | 471 kts | 121° |
| 2026-05-06 12:08 | 38.52954 | 120.19125 | 20543 ft | 477 kts | 111° |
| 2026-05-06 12:08 | 38.52054 | 120.23205 | 20436 ft | 476 kts | 107° |
| 2026-05-06 12:08 | 38.51325 | 120.27316 | 19785 ft | 472 kts | 104° |
| 2026-05-06 12:09 | 38.50712 | 120.31410 | 19105 ft | 467 kts | 103° |
| 2026-05-06 12:09 | 38.50106 | 120.35458 | 18473 ft | 461 kts | 104° |
| 2026-05-06 12:09 | 38.49488 | 120.39453 | 17798 ft | 455 kts | 104° |
| 2026-05-06 12:09 | 38.48864 | 120.43380 | 17071 ft | 449 kts | 104° |
| 2026-05-06 12:10 | 38.48238 | 120.47258 | 16329 ft | 444 kts | 104° |
| 2026-05-06 12:10 | 38.47617 | 120.51061 | 15608 ft | 439 kts | 104° |
| 2026-05-06 12:10 | 38.47002 | 120.54857 | 14905 ft | 435 kts | 104° |
| 2026-05-06 12:10 | 38.46395 | 120.58621 | 14201 ft | 431 kts | 104° |
| 2026-05-06 12:11 | 38.45790 | 120.62356 | 13491 ft | 427 kts | 103° |
| 2026-05-06 12:11 | 38.45192 | 120.66043 | 12740 ft | 422 kts | 104° |
| 2026-05-06 12:11 | 38.44599 | 120.69689 | 12090 ft | 417 kts | 104° |
| 2026-05-06 12:11 | 38.44011 | 120.73301 | 11762 ft | 415 kts | 104° |
| 2026-05-06 12:12 | 38.43423 | 120.76896 | 11694 ft | 414 kts | 104° |
| 2026-05-06 12:12 | 38.42833 | 120.80497 | 11684 ft | 413 kts | 104° |
| 2026-05-06 12:12 | 38.42243 | 120.84087 | 11688 ft | 413 kts | 104° |
| 2026-05-06 12:12 | 38.41653 | 120.87674 | 11685 ft | 413 kts | 104° |
| 2026-05-06 12:13 | 38.41064 | 120.91249 | 11690 ft | 413 kts | 104° |
| 2026-05-06 12:13 | 38.40496 | 120.94853 | 11786 ft | 414 kts | 101° |
| 2026-05-06 12:13 | 38.40364 | 120.98468 | 11795 ft | 416 kts | 85° |
| 2026-05-06 12:13 | 38.40887 | 121.02095 | 11798 ft | 416 kts | 76° |
| 2026-05-06 12:14 | 38.41612 | 121.05664 | 11797 ft | 416 kts | 75° |
| 2026-05-06 12:14 | 38.42371 | 121.09244 | 11793 ft | 417 kts | 75° |
| 2026-05-06 12:14 | 38.43130 | 121.12807 | 11792 ft | 416 kts | 75° |
| 2026-05-06 12:14 | 38.43886 | 121.16377 | 11791 ft | 416 kts | 75° |
| 2026-05-06 12:15 | 38.44635 | 121.19947 | 11786 ft | 416 kts | 75° |
| 2026-05-06 12:15 | 38.45381 | 121.23517 | 11785 ft | 416 kts | 75° |
| 2026-05-06 12:15 | 38.46130 | 121.27085 | 11679 ft | 413 kts | 73° |
| 2026-05-06 12:15 | 38.47160 | 121.30466 | 11187 ft | 403 kts | 63° |
| 2026-05-06 12:16 | 38.48417 | 121.33587 | 10925 ft | 387 kts | 60° |
| 2026-05-06 12:16 | 38.49661 | 121.36556 | 10699 ft | 372 kts | 60° |
| 2026-05-06 12:16 | 38.50861 | 121.39417 | 10477 ft | 358 kts | 60° |
| 2026-05-06 12:16 | 38.52011 | 121.42168 | 10278 ft | 345 kts | 60° |
| 2026-05-06 12:17 | 38.53121 | 121.44831 | 10094 ft | 333 kts | 60° |
| 2026-05-06 12:17 | 38.54193 | 121.47410 | 9855 ft | 324 kts | 60° |
| 2026-05-06 12:17 | 38.55393 | 121.49724 | 9779 ft | 311 kts | 43° |
| 2026-05-06 12:17 | 38.57150 | 121.51206 | 9785 ft | 300 kts | 13° |
| 2026-05-06 12:18 | 38.59164 | 121.51755 | 9784 ft | 295 kts | 2° |
| 2026-05-06 12:18 | 38.61200 | 121.52065 | 9456 ft | 295 kts | 0° |
| 2026-05-06 12:18 | 38.63235 | 121.52340 | 9009 ft | 294 kts | 0° |
| 2026-05-06 12:18 | 38.65268 | 121.52620 | 8575 ft | 293 kts | 1° |
| 2026-05-06 12:19 | 38.67292 | 121.52909 | 8148 ft | 291 kts | 1° |
| 2026-05-06 12:19 | 38.69301 | 121.53202 | 7724 ft | 290 kts | 2° |
| 2026-05-06 12:19 | 38.70626 | 121.53397 | 7453 ft | 289 kts | 2° |
| 2026-05-06 12:19 | 38.73303 | 121.53794 | 6900 ft | 288 kts | 2° |
| 2026-05-06 12:20 | 38.74616 | 121.53990 | 6632 ft | 287 kts | 2° |
| 2026-05-06 12:20 | 38.77264 | 121.54387 | 6090 ft | 285 kts | 2° |
| 2026-05-06 12:20 | 38.78574 | 121.54583 | 5810 ft | 285 kts | 3° |
| 2026-05-06 12:20 | 38.80537 | 121.54878 | 5384 ft | 283 kts | 3° |
| 2026-05-06 12:21 | 38.82493 | 121.55173 | 4982 ft | 282 kts | 3° |
| 2026-05-06 12:21 | 38.84433 | 121.55541 | 4563 ft | 283 kts | 12° |
| 2026-05-06 12:21 | 38.86126 | 121.56733 | 4139 ft | 285 kts | 45° |
| 2026-05-06 12:21 | 38.87076 | 121.58908 | 3775 ft | 279 kts | 80° |
| 2026-05-06 12:22 | 38.87099 | 121.61357 | 3422 ft | 272 kts | 99° |
| 2026-05-06 12:22 | 38.86841 | 121.63751 | 3108 ft | 270 kts | 101° |
| 2026-05-06 12:22 | 38.86578 | 121.66120 | 3023 ft | 269 kts | 99° |
| 2026-05-06 12:22 | 38.86337 | 121.68522 | 3016 ft | 271 kts | 99° |
| 2026-05-06 12:23 | 38.86119 | 121.70916 | 3014 ft | 271 kts | 98° |
| 2026-05-06 12:23 | 38.86178 | 121.73340 | 3012 ft | 274 kts | 74° |
| 2026-05-06 12:23 | 38.87178 | 121.75385 | 2965 ft | 274 kts | 40° |
| 2026-05-06 12:23 | 38.88857 | 121.76448 | 2562 ft | 269 kts | 5° |
| 2026-05-06 12:24 | 38.90664 | 121.76199 | 2213 ft | 259 kts | 340° |
| 2026-05-06 12:24 | 38.92353 | 121.75467 | 2029 ft | 253 kts | 339° |
| 2026-05-06 12:24 | 38.93889 | 121.74522 | 2002 ft | 235 kts | 322° |
| 2026-05-06 12:24 | 38.94904 | 121.73038 | 2034 ft | 211 kts | 296° |
| 2026-05-06 12:25 | 38.95288 | 121.71315 | 2015 ft | 192 kts | 277° |
| 2026-05-06 12:25 | 38.95357 | 121.69692 | 2002 ft | 173 kts | 272° |
| 2026-05-06 12:25 | 38.95461 | 121.68252 | 1997 ft | 152 kts | 277° |
| 2026-05-06 12:25 | 38.95569 | 121.66982 | 1961 ft | 142 kts | 276° |
| 2026-05-06 12:26 | 38.95660 | 121.65715 | 1735 ft | 143 kts | 277° |
| 2026-05-06 12:26 | 38.95754 | 121.64450 | 1552 ft | 139 kts | 278° |
| 2026-05-06 12:26 | 38.95846 | 121.63251 | 1344 ft | 132 kts | 279° |
| 2026-05-06 12:26 | 38.95935 | 121.62082 | 1163 ft | 131 kts | 279° |
| 2026-05-06 12:27 | 38.96026 | 121.60913 | 991 ft | 132 kts | 279° |
| 2026-05-06 12:27 | 38.96115 | 121.59741 | 808 ft | 132 kts | 279° |
| 2026-05-06 12:27 | 38.96204 | 121.58575 | 631 ft | 131 kts | 277° |
| 2026-05-06 12:27 | 38.96295 | 121.57410 | 440 ft | 131 kts | 277° |
| 2026-05-06 12:28 | 38.96386 | 121.56250 | 282 ft | 130 kts | 277° |
| 2026-05-06 12:28 | 38.96452 | 121.55100 | 125 ft | 127 kts | 277° |
| 2026-05-06 12:28 | 38.96538 | 121.54132 | 119 ft | 84 kts | 275° |
| 2026-05-06 12:28 | 38.96577 | 121.53614 | 119 ft | 32 kts | 275° |
| 2026-05-06 12:29 | 38.96580 | 121.53419 | 116 ft | 20 kts | 261° |
| 2026-05-06 12:29 | 38.96546 | 121.53245 | 115 ft | 19 kts | 245° |
| 2026-05-06 12:29 | 38.96484 | 121.53099 | 116 ft | 18 kts | 234° |
| 2026-05-06 12:29 | 38.96421 | 121.53103 | 116 ft | 8 kts | 126° |
| 2026-05-06 12:30 | 38.96411 | 121.53166 | 116 ft | 7 kts | 96° |
| 2026-05-06 12:30 | 38.96412 | 121.53231 | 115 ft | 7 kts | 81° |
| 2026-05-06 12:30 | 38.96420 | 121.53299 | 118 ft | 8 kts | 83° |
| 2026-05-06 12:30 | 38.96418 | 121.53366 | 116 ft | 8 kts | 96° |
| 2026-05-06 12:31 | 38.96413 | 121.53437 | 117 ft | 9 kts | 95° |
| 2026-05-06 12:31 | 38.96405 | 121.53538 | 119 ft | 14 kts | 97° |
| 2026-05-06 12:31 | 38.96393 | 121.53680 | 118 ft | 14 kts | 95° |
| 2026-05-06 12:31 | 38.96386 | 121.53794 | 119 ft | 15 kts | 95° |
| 2026-05-06 12:32 | 38.96376 | 121.53945 | 119 ft | 19 kts | 94° |
| 2026-05-06 12:32 | 38.96365 | 121.54129 | 119 ft | 15 kts | 102° |
| 2026-05-06 12:32 | 38.96360 | 121.54138 | 118 ft | 2 kts | 146° |
| 2026-05-06 12:32 | 38.96304 | 121.54134 | 116 ft | 12 kts | 192° |
| 2026-05-06 12:33 | 38.96261 | 121.54130 | 116 ft | 4 kts | 182° |
| 2026-05-06 12:33 | 38.96232 | 121.54129 | 116 ft | 2 kts | 181° |
| 2026-05-06 12:33 | 38.96231 | 121.54129 | 117 ft | 0 kts | 181° |